sensor_id;sensor_type;location;lat;lon;timestamp;temperature;humidity
2112;DHT22;1062;52.538;13.400;2023-04-03T00:00:04;1.10;99.90
2112;DHT22;1062;52.538;13.400;2023-04-03T00:02:30;1.00;99.90
2112;DHT22;1062;52.538;13.400;2023-04-03T00:04:56;1.00;99.90
2112;DHT22;1062;52.538;13.400;2023-04-03T00:07:21;1.00;99.90
2112;DHT22;1062;52.538;13.400;2023-04-03T00:09:47;1.00;99.90
2112;DHT22;1062;52.538;13.400;2023-04-03T00:12:13;1.00;99.90
2112;DHT22;1062;52.538;13.400;2023-04-03T00:14:38;1.00;99.90
2112;DHT22;1062;52.538;13.400;2023-04-03T00:17:04;0.90;99.90
2112;DHT22;1062;52.538;13.400;2023-04-03T00:19:30;0.90;99.90
2112;DHT22;1062;52.538;13.400;2023-04-03T00:21:55;0.90;99.90
2112;DHT22;1062;52.538;13.400;2023-04-03T00:24:21;0.90;99.90
2112;DHT22;1062;52.538;13.400;2023-04-03T00:26:47;0.90;99.90
2112;DHT22;1062;52.538;13.400;2023-04-03T00:29:13;0.90;99.90
2112;DHT22;1062;52.538;13.400;2023-04-03T00:31:38;0.90;99.90
2112;DHT22;1062;52.538;13.400;2023-04-03T00:34:04;0.90;99.90
2112;DHT22;1062;52.538;13.400;2023-04-03T00:36:29;0.90;99.90
2112;DHT22;1062;52.538;13.400;2023-04-03T00:38:55;0.90;99.90
2112;DHT22;1062;52.538;13.400;2023-04-03T00:41:21;0.90;99.90
2112;DHT22;1062;52.538;13.400;2023-04-03T00:43:47;0.90;99.90
2112;DHT22;1062;52.538;13.400;2023-04-03T00:46:12;0.80;99.90
2112;DHT22;1062;52.538;13.400;2023-04-03T00:48:42;0.80;99.90
2112;DHT22;1062;52.538;13.400;2023-04-03T00:51:12;0.80;99.90
2112;DHT22;1062;52.538;13.400;2023-04-03T00:53:42;0.80;99.90
2112;DHT22;1062;52.538;13.400;2023-04-03T00:56:11;0.80;99.90
2112;DHT22;1062;52.538;13.400;2023-04-03T00:58:46;0.80;99.90
2112;DHT22;1062;52.538;13.400;2023-04-03T01:01:16;0.80;99.90
2112;DHT22;1062;52.538;13.400;2023-04-03T01:03:43;0.80;99.90
2112;DHT22;1062;52.538;13.400;2023-04-03T01:06:09;0.70;99.90
2112;DHT22;1062;52.538;13.400;2023-04-03T01:08:35;0.70;99.90
2112;DHT22;1062;52.538;13.400;2023-04-03T01:11:01;0.70;99.90
2112;DHT22;1062;52.538;13.400;2023-04-03T01:13:32;0.70;99.90
2112;DHT22;1062;52.538;13.400;2023-04-03T01:16:01;0.70;99.90
2112;DHT22;1062;52.538;13.400;2023-04-03T01:18:28;0.70;99.90
2112;DHT22;1062;52.538;13.400;2023-04-03T01:26:13;0.60;99.90
2112;DHT22;1062;52.538;13.400;2023-04-03T01:28:39;0.60;99.90
2112;DHT22;1062;52.538;13.400;2023-04-03T01:33:41;0.60;99.90
2112;DHT22;1062;52.538;13.400;2023-04-03T01:36:09;0.50;99.90
2112;DHT22;1062;52.538;13.400;2023-04-03T01:38:35;0.50;99.90
2112;DHT22;1062;52.538;13.400;2023-04-03T01:41:01;0.50;99.90
2112;DHT22;1062;52.538;13.400;2023-04-03T01:43:26;0.40;99.90
2112;DHT22;1062;52.538;13.400;2023-04-03T01:45:52;0.40;99.90
2112;DHT22;1062;52.538;13.400;2023-04-03T01:48:20;0.40;99.90
2112;DHT22;1062;52.538;13.400;2023-04-03T01:50:46;0.40;99.90
2112;DHT22;1062;52.538;13.400;2023-04-03T01:53:13;0.40;99.90
2112;DHT22;1062;52.538;13.400;2023-04-03T01:55:39;0.30;99.90
2112;DHT22;1062;52.538;13.400;2023-04-03T01:58:04;0.30;99.90
2112;DHT22;1062;52.538;13.400;2023-04-03T02:00:30;0.30;99.90
2112;DHT22;1062;52.538;13.400;2023-04-03T02:02:56;0.30;99.90
2112;DHT22;1062;52.538;13.400;2023-04-03T02:05:22;0.30;99.90
2112;DHT22;1062;52.538;13.400;2023-04-03T02:07:47;0.20;99.90
2112;DHT22;1062;52.538;13.400;2023-04-03T02:10:13;0.10;99.90
2112;DHT22;1062;52.538;13.400;2023-04-03T02:12:39;0.10;99.90
2112;DHT22;1062;52.538;13.400;2023-04-03T02:15:05;0.00;99.90
2112;DHT22;1062;52.538;13.400;2023-04-03T02:17:31;0.00;99.90
2112;DHT22;1062;52.538;13.400;2023-04-03T02:19:57;0.00;99.90
2112;DHT22;1062;52.538;13.400;2023-04-03T02:22:22;0.00;99.90
2112;DHT22;1062;52.538;13.400;2023-04-03T02:24:48;0.00;99.90
2112;DHT22;1062;52.538;13.400;2023-04-03T02:27:13;-0.10;99.90
2112;DHT22;1062;52.538;13.400;2023-04-03T02:29:40;-0.10;99.90
2112;DHT22;1062;52.538;13.400;2023-04-03T02:32:05;-0.10;99.90
2112;DHT22;1062;52.538;13.400;2023-04-03T02:34:31;-0.10;99.90
2112;DHT22;1062;52.538;13.400;2023-04-03T02:36:56;-0.10;99.90
2112;DHT22;1062;52.538;13.400;2023-04-03T02:39:22;-0.10;99.90
2112;DHT22;1062;52.538;13.400;2023-04-03T02:41:47;-0.10;99.90
2112;DHT22;1062;52.538;13.400;2023-04-03T02:44:13;-0.10;99.90
2112;DHT22;1062;52.538;13.400;2023-04-03T02:46:39;-0.20;99.90
2112;DHT22;1062;52.538;13.400;2023-04-03T02:49:05;-0.20;99.90
2112;DHT22;1062;52.538;13.400;2023-04-03T02:51:31;-0.20;99.90
2112;DHT22;1062;52.538;13.400;2023-04-03T02:53:56;-0.20;99.90
2112;DHT22;1062;52.538;13.400;2023-04-03T02:56:22;-0.20;99.90
2112;DHT22;1062;52.538;13.400;2023-04-03T02:58:48;-0.30;99.90
2112;DHT22;1062;52.538;13.400;2023-04-03T03:01:14;-0.30;99.90
2112;DHT22;1062;52.538;13.400;2023-04-03T03:03:39;-0.30;99.90
2112;DHT22;1062;52.538;13.400;2023-04-03T03:06:08;-0.30;99.90
2112;DHT22;1062;52.538;13.400;2023-04-03T03:08:35;-0.30;99.90
2112;DHT22;1062;52.538;13.400;2023-04-03T03:11:01;-0.40;99.90
2112;DHT22;1062;52.538;13.400;2023-04-03T03:13:27;-0.40;99.90
2112;DHT22;1062;52.538;13.400;2023-04-03T03:15:52;-0.40;99.90
2112;DHT22;1062;52.538;13.400;2023-04-03T03:18:18;-0.40;99.90
2112;DHT22;1062;52.538;13.400;2023-04-03T03:20:44;-0.50;99.90
2112;DHT22;1062;52.538;13.400;2023-04-03T03:23:10;-0.50;99.90
2112;DHT22;1062;52.538;13.400;2023-04-03T03:25:42;-0.50;99.90
2112;DHT22;1062;52.538;13.400;2023-04-03T03:28:07;-0.50;99.90
2112;DHT22;1062;52.538;13.400;2023-04-03T03:30:33;-0.50;99.90
2112;DHT22;1062;52.538;13.400;2023-04-03T03:32:59;-0.50;99.90
2112;DHT22;1062;52.538;13.400;2023-04-03T03:35:25;-0.60;99.90
2112;DHT22;1062;52.538;13.400;2023-04-03T03:37:51;-0.60;99.90
2112;DHT22;1062;52.538;13.400;2023-04-03T03:40:16;-0.60;99.90
2112;DHT22;1062;52.538;13.400;2023-04-03T03:42:42;-0.60;99.90
2112;DHT22;1062;52.538;13.400;2023-04-03T03:45:08;-0.60;99.90
2112;DHT22;1062;52.538;13.400;2023-04-03T03:47:34;-0.70;99.90
2112;DHT22;1062;52.538;13.400;2023-04-03T03:50:00;-0.70;99.90
2112;DHT22;1062;52.538;13.400;2023-04-03T03:52:26;-0.70;99.90
2112;DHT22;1062;52.538;13.400;2023-04-03T03:54:52;-0.70;99.90
2112;DHT22;1062;52.538;13.400;2023-04-03T03:57:17;-0.80;99.90
2112;DHT22;1062;52.538;13.400;2023-04-03T03:59:43;-0.80;99.90
2112;DHT22;1062;52.538;13.400;2023-04-03T04:02:10;-0.80;99.90
2112;DHT22;1062;52.538;13.400;2023-04-03T04:04:36;-0.80;99.90
2112;DHT22;1062;52.538;13.400;2023-04-03T04:07:03;-0.80;99.90
2112;DHT22;1062;52.538;13.400;2023-04-03T04:09:29;-0.90;99.90
2112;DHT22;1062;52.538;13.400;2023-04-03T04:11:55;-0.90;99.90
2112;DHT22;1062;52.538;13.400;2023-04-03T04:14:20;-0.90;99.90
2112;DHT22;1062;52.538;13.400;2023-04-03T04:16:46;-0.90;99.90
2112;DHT22;1062;52.538;13.400;2023-04-03T04:19:13;-0.90;99.90
2112;DHT22;1062;52.538;13.400;2023-04-03T04:21:39;-0.90;99.90
2112;DHT22;1062;52.538;13.400;2023-04-03T04:24:05;-0.90;99.90
2112;DHT22;1062;52.538;13.400;2023-04-03T04:26:31;-0.90;99.90
2112;DHT22;1062;52.538;13.400;2023-04-03T04:28:57;-0.90;99.90
2112;DHT22;1062;52.538;13.400;2023-04-03T04:31:22;-1.00;99.90
2112;DHT22;1062;52.538;13.400;2023-04-03T04:33:48;-1.00;99.90
2112;DHT22;1062;52.538;13.400;2023-04-03T04:36:13;-1.00;99.90
2112;DHT22;1062;52.538;13.400;2023-04-03T04:38:40;-1.00;99.90
2112;DHT22;1062;52.538;13.400;2023-04-03T04:41:06;-1.00;99.90
2112;DHT22;1062;52.538;13.400;2023-04-03T04:43:32;-1.00;99.90
2112;DHT22;1062;52.538;13.400;2023-04-03T04:46:08;-0.90;99.90
2112;DHT22;1062;52.538;13.400;2023-04-03T04:48:35;-0.90;99.90
2112;DHT22;1062;52.538;13.400;2023-04-03T04:51:01;-0.90;99.90
2112;DHT22;1062;52.538;13.400;2023-04-03T04:53:27;-0.90;99.90
2112;DHT22;1062;52.538;13.400;2023-04-03T04:55:53;-0.90;99.90
2112;DHT22;1062;52.538;13.400;2023-04-03T04:58:19;-0.80;99.90
2112;DHT22;1062;52.538;13.400;2023-04-03T05:00:45;-0.80;99.90
2112;DHT22;1062;52.538;13.400;2023-04-03T05:03:11;-0.80;99.90
2112;DHT22;1062;52.538;13.400;2023-04-03T05:05:37;-0.80;99.90
2112;DHT22;1062;52.538;13.400;2023-04-03T05:08:03;-0.80;99.90
2112;DHT22;1062;52.538;13.400;2023-04-03T05:10:29;-0.70;99.90
2112;DHT22;1062;52.538;13.400;2023-04-03T05:12:54;-0.70;99.90
2112;DHT22;1062;52.538;13.400;2023-04-03T05:15:20;-0.70;99.90
2112;DHT22;1062;52.538;13.400;2023-04-03T05:17:46;-0.70;99.90
2112;DHT22;1062;52.538;13.400;2023-04-03T05:20:11;-0.60;99.90
2112;DHT22;1062;52.538;13.400;2023-04-03T05:22:37;-0.60;99.90
2112;DHT22;1062;52.538;13.400;2023-04-03T05:25:04;-0.50;99.90
2112;DHT22;1062;52.538;13.400;2023-04-03T05:27:29;-0.50;99.90
2112;DHT22;1062;52.538;13.400;2023-04-03T05:29:55;-0.40;99.90
2112;DHT22;1062;52.538;13.400;2023-04-03T05:32:22;-0.30;99.90
2112;DHT22;1062;52.538;13.400;2023-04-03T05:34:48;-0.30;99.90
2112;DHT22;1062;52.538;13.400;2023-04-03T05:37:14;-0.20;99.90
2112;DHT22;1062;52.538;13.400;2023-04-03T05:39:39;-0.10;99.90
2112;DHT22;1062;52.538;13.400;2023-04-03T05:42:07;-0.10;99.90
2112;DHT22;1062;52.538;13.400;2023-04-03T05:44:33;0.00;99.90
2112;DHT22;1062;52.538;13.400;2023-04-03T05:46:59;0.10;99.90
2112;DHT22;1062;52.538;13.400;2023-04-03T05:49:25;0.20;99.90
2112;DHT22;1062;52.538;13.400;2023-04-03T05:51:51;0.40;99.90
2112;DHT22;1062;52.538;13.400;2023-04-03T05:54:23;1.00;99.90
2112;DHT22;1062;52.538;13.400;2023-04-03T05:56:52;1.60;99.90
2112;DHT22;1062;52.538;13.400;2023-04-03T05:59:19;2.10;99.90
2112;DHT22;1062;52.538;13.400;2023-04-03T06:01:45;2.90;99.90
2112;DHT22;1062;52.538;13.400;2023-04-03T06:04:11;3.20;99.90
2112;DHT22;1062;52.538;13.400;2023-04-03T06:06:54;4.00;99.90
2112;DHT22;1062;52.538;13.400;2023-04-03T06:09:23;4.40;99.90
2112;DHT22;1062;52.538;13.400;2023-04-03T06:11:49;4.90;99.90
2112;DHT22;1062;52.538;13.400;2023-04-03T06:14:15;5.20;99.90
2112;DHT22;1062;52.538;13.400;2023-04-03T06:16:41;4.80;99.90
2112;DHT22;1062;52.538;13.400;2023-04-03T06:19:11;4.90;99.90
2112;DHT22;1062;52.538;13.400;2023-04-03T06:21:37;5.10;99.90
2112;DHT22;1062;52.538;13.400;2023-04-03T06:24:04;5.50;99.90
2112;DHT22;1062;52.538;13.400;2023-04-03T06:26:30;6.40;99.90
2112;DHT22;1062;52.538;13.400;2023-04-03T06:28:56;6.50;99.90
2112;DHT22;1062;52.538;13.400;2023-04-03T06:31:21;6.50;99.90
2112;DHT22;1062;52.538;13.400;2023-04-03T06:33:47;6.50;99.90
2112;DHT22;1062;52.538;13.400;2023-04-03T06:36:13;5.90;99.90
2112;DHT22;1062;52.538;13.400;2023-04-03T06:38:39;6.10;99.90
2112;DHT22;1062;52.538;13.400;2023-04-03T06:41:04;6.10;99.90
2112;DHT22;1062;52.538;13.400;2023-04-03T06:43:30;6.30;99.90
2112;DHT22;1062;52.538;13.400;2023-04-03T06:45:58;6.90;99.90
2112;DHT22;1062;52.538;13.400;2023-04-03T06:48:24;7.00;99.90
2112;DHT22;1062;52.538;13.400;2023-04-03T06:50:50;6.80;99.90
2112;DHT22;1062;52.538;13.400;2023-04-03T06:53:15;7.20;99.90
2112;DHT22;1062;52.538;13.400;2023-04-03T06:55:41;7.40;99.90
2112;DHT22;1062;52.538;13.400;2023-04-03T06:58:07;7.00;99.90
2112;DHT22;1062;52.538;13.400;2023-04-03T07:00:33;7.80;99.90
2112;DHT22;1062;52.538;13.400;2023-04-03T07:02:59;7.70;99.90
2112;DHT22;1062;52.538;13.400;2023-04-03T07:05:25;8.10;99.90
2112;DHT22;1062;52.538;13.400;2023-04-03T07:07:52;8.20;99.90
2112;DHT22;1062;52.538;13.400;2023-04-03T07:10:18;8.50;99.90
2112;DHT22;1062;52.538;13.400;2023-04-03T07:12:44;7.80;99.90
2112;DHT22;1062;52.538;13.400;2023-04-03T07:15:10;8.00;99.90
2112;DHT22;1062;52.538;13.400;2023-04-03T07:17:36;7.80;99.90
2112;DHT22;1062;52.538;13.400;2023-04-03T07:20:02;7.40;99.90
2112;DHT22;1062;52.538;13.400;2023-04-03T07:22:29;7.40;99.90
2112;DHT22;1062;52.538;13.400;2023-04-03T07:24:55;6.80;99.90
2112;DHT22;1062;52.538;13.400;2023-04-03T07:27:20;5.90;99.90
2112;DHT22;1062;52.538;13.400;2023-04-03T07:29:46;5.80;99.90
2112;DHT22;1062;52.538;13.400;2023-04-03T07:32:17;5.90;99.90
2112;DHT22;1062;52.538;13.400;2023-04-03T07:34:43;6.00;99.90
2112;DHT22;1062;52.538;13.400;2023-04-03T07:37:09;6.40;99.90
2112;DHT22;1062;52.538;13.400;2023-04-03T07:39:34;6.70;99.90
2112;DHT22;1062;52.538;13.400;2023-04-03T07:42:01;7.60;99.90
2112;DHT22;1062;52.538;13.400;2023-04-03T07:44:27;7.80;98.60
2112;DHT22;1062;52.538;13.400;2023-04-03T07:46:53;7.50;98.70
2112;DHT22;1062;52.538;13.400;2023-04-03T07:49:20;7.20;99.60
2112;DHT22;1062;52.538;13.400;2023-04-03T07:51:48;7.20;99.90
2112;DHT22;1062;52.538;13.400;2023-04-03T07:54:14;7.40;99.00
2112;DHT22;1062;52.538;13.400;2023-04-03T07:56:40;7.10;99.10
2112;DHT22;1062;52.538;13.400;2023-04-03T07:59:08;6.30;98.90
2112;DHT22;1062;52.538;13.400;2023-04-03T08:01:34;5.60;99.90
2112;DHT22;1062;52.538;13.400;2023-04-03T08:04:00;5.80;99.90
2112;DHT22;1062;52.538;13.400;2023-04-03T08:06:25;5.30;99.90
2112;DHT22;1062;52.538;13.400;2023-04-03T08:08:51;4.60;99.90
2112;DHT22;1062;52.538;13.400;2023-04-03T08:11:17;4.50;99.90
2112;DHT22;1062;52.538;13.400;2023-04-03T08:13:44;4.00;99.90
2112;DHT22;1062;52.538;13.400;2023-04-03T08:16:16;4.20;99.90
2112;DHT22;1062;52.538;13.400;2023-04-03T08:18:42;4.10;99.90
2112;DHT22;1062;52.538;13.400;2023-04-03T08:21:10;4.10;99.90
2112;DHT22;1062;52.538;13.400;2023-04-03T08:23:36;4.20;99.90
2112;DHT22;1062;52.538;13.400;2023-04-03T08:26:21;4.20;99.90
2112;DHT22;1062;52.538;13.400;2023-04-03T08:28:47;4.20;99.90
2112;DHT22;1062;52.538;13.400;2023-04-03T08:31:15;4.10;99.90
2112;DHT22;1062;52.538;13.400;2023-04-03T08:33:42;4.20;99.90
2112;DHT22;1062;52.538;13.400;2023-04-03T08:36:23;4.20;99.90
2112;DHT22;1062;52.538;13.400;2023-04-03T08:38:50;4.30;99.90
2112;DHT22;1062;52.538;13.400;2023-04-03T08:47:07;4.50;99.90
2112;DHT22;1062;52.538;13.400;2023-04-03T08:52:47;4.10;99.90
2112;DHT22;1062;52.538;13.400;2023-04-03T08:55:33;4.20;99.90
2112;DHT22;1062;52.538;13.400;2023-04-03T08:58:16;4.30;99.90
2112;DHT22;1062;52.538;13.400;2023-04-03T09:03:21;4.40;99.90
2112;DHT22;1062;52.538;13.400;2023-04-03T09:06:05;4.60;99.90
2112;DHT22;1062;52.538;13.400;2023-04-03T09:08:50;5.30;99.90
2112;DHT22;1062;52.538;13.400;2023-04-03T09:19:22;4.80;99.00
2112;DHT22;1062;52.538;13.400;2023-04-03T09:21:49;4.90;99.00
2112;DHT22;1062;52.538;13.400;2023-04-03T09:24:16;4.90;98.60
2112;DHT22;1062;52.538;13.400;2023-04-03T09:26:46;5.00;98.70
2112;DHT22;1062;52.538;13.400;2023-04-03T09:29:22;6.00;98.20
2112;DHT22;1062;52.538;13.400;2023-04-03T09:31:50;6.20;97.20
2112;DHT22;1062;52.538;13.400;2023-04-03T09:34:32;5.80;97.50
2112;DHT22;1062;52.538;13.400;2023-04-03T09:37:01;5.80;98.20
2112;DHT22;1062;52.538;13.400;2023-04-03T09:39:32;5.70;96.70
2112;DHT22;1062;52.538;13.400;2023-04-03T09:42:01;5.40;97.80
2112;DHT22;1062;52.538;13.400;2023-04-03T09:44:35;5.30;98.00
2112;DHT22;1062;52.538;13.400;2023-04-03T09:47:29;5.20;98.30
2112;DHT22;1062;52.538;13.400;2023-04-03T09:52:40;4.70;98.90
2112;DHT22;1062;52.538;13.400;2023-04-03T09:55:08;4.80;99.00
2112;DHT22;1062;52.538;13.400;2023-04-03T09:57:36;4.90;98.90
2112;DHT22;1062;52.538;13.400;2023-04-03T10:00:03;4.90;98.90
2112;DHT22;1062;52.538;13.400;2023-04-03T10:02:40;5.10;98.80
2112;DHT22;1062;52.538;13.400;2023-04-03T10:05:39;5.20;98.80
2112;DHT22;1062;52.538;13.400;2023-04-03T10:10:41;5.50;98.20
2112;DHT22;1062;52.538;13.400;2023-04-03T10:13:18;5.40;97.60
2112;DHT22;1062;52.538;13.400;2023-04-03T10:16:03;5.30;97.70
2112;DHT22;1062;52.538;13.400;2023-04-03T10:21:15;5.40;97.70
2112;DHT22;1062;52.538;13.400;2023-04-03T10:24:01;5.30;97.10
2112;DHT22;1062;52.538;13.400;2023-04-03T10:26:49;5.50;97.20
2112;DHT22;1062;52.538;13.400;2023-04-03T10:30:09;5.70;96.90
2112;DHT22;1062;52.538;13.400;2023-04-03T10:32:44;5.80;95.50
2112;DHT22;1062;52.538;13.400;2023-04-03T10:35:25;5.60;95.60
2112;DHT22;1062;52.538;13.400;2023-04-03T10:46:06;6.00;95.30
2112;DHT22;1062;52.538;13.400;2023-04-03T10:56:34;6.40;95.20
2112;DHT22;1062;52.538;13.400;2023-04-03T10:59:18;6.30;94.40
2112;DHT22;1062;52.538;13.400;2023-04-03T11:01:53;6.10;94.70
2112;DHT22;1062;52.538;13.400;2023-04-03T11:04:22;6.00;95.30
2112;DHT22;1062;52.538;13.400;2023-04-03T11:06:53;6.10;95.30
2112;DHT22;1062;52.538;13.400;2023-04-03T11:09:27;5.90;95.50
2112;DHT22;1062;52.538;13.400;2023-04-03T11:12:01;5.90;95.80
2112;DHT22;1062;52.538;13.400;2023-04-03T11:20:14;5.60;96.30
2112;DHT22;1062;52.538;13.400;2023-04-03T11:22:49;5.70;97.30
2112;DHT22;1062;52.538;13.400;2023-04-03T11:25:22;5.70;96.20
2112;DHT22;1062;52.538;13.400;2023-04-03T11:28:00;5.70;96.50
2112;DHT22;1062;52.538;13.400;2023-04-03T11:30:43;5.60;97.20
2112;DHT22;1062;52.538;13.400;2023-04-03T11:36:29;5.70;97.00
2112;DHT22;1062;52.538;13.400;2023-04-03T11:38:59;5.70;96.80
2112;DHT22;1062;52.538;13.400;2023-04-03T11:41:28;5.90;97.20
2112;DHT22;1062;52.538;13.400;2023-04-03T11:44:13;5.90;97.70
2112;DHT22;1062;52.538;13.400;2023-04-03T11:46:50;6.10;97.40
2112;DHT22;1062;52.538;13.400;2023-04-03T11:49:56;6.10;97.00
2112;DHT22;1062;52.538;13.400;2023-04-03T12:05:48;5.80;97.60
2112;DHT22;1062;52.538;13.400;2023-04-03T12:14:02;5.90;97.50
2112;DHT22;1062;52.538;13.400;2023-04-03T12:24:32;5.80;98.40
2112;DHT22;1062;52.538;13.400;2023-04-03T12:35:01;5.60;99.80
2112;DHT22;1062;52.538;13.400;2023-04-03T12:43:02;5.70;97.20
2112;DHT22;1062;52.538;13.400;2023-04-03T12:45:51;5.70;97.10
2112;DHT22;1062;52.538;13.400;2023-04-03T12:48:25;6.00;96.90
2112;DHT22;1062;52.538;13.400;2023-04-03T12:50:54;6.10;97.30
2112;DHT22;1062;52.538;13.400;2023-04-03T12:53:31;6.10;96.60
2112;DHT22;1062;52.538;13.400;2023-04-03T12:58:49;6.00;96.30
2112;DHT22;1062;52.538;13.400;2023-04-03T13:01:18;6.20;96.50
2112;DHT22;1062;52.538;13.400;2023-04-03T13:03:48;6.00;96.80
2112;DHT22;1062;52.538;13.400;2023-04-03T13:06:24;5.70;96.80
2112;DHT22;1062;52.538;13.400;2023-04-03T13:08:57;5.80;97.40
2112;DHT22;1062;52.538;13.400;2023-04-03T13:11:25;5.90;97.20
2112;DHT22;1062;52.538;13.400;2023-04-03T13:14:00;5.90;97.40
2112;DHT22;1062;52.538;13.400;2023-04-03T13:16:27;5.80;97.50
2112;DHT22;1062;52.538;13.400;2023-04-03T13:18:54;5.70;97.70
2112;DHT22;1062;52.538;13.400;2023-04-03T13:21:30;5.70;98.00
2112;DHT22;1062;52.538;13.400;2023-04-03T13:24:01;5.60;98.10
2112;DHT22;1062;52.538;13.400;2023-04-03T13:26:31;5.50;98.10
2112;DHT22;1062;52.538;13.400;2023-04-03T13:29:02;5.40;98.40
2112;DHT22;1062;52.538;13.400;2023-04-03T13:31:37;5.50;98.20
2112;DHT22;1062;52.538;13.400;2023-04-03T13:36:38;5.50;98.40
2112;DHT22;1062;52.538;13.400;2023-04-03T13:39:19;5.50;98.30
2112;DHT22;1062;52.538;13.400;2023-04-03T13:41:54;5.40;98.30
2112;DHT22;1062;52.538;13.400;2023-04-03T13:46:50;5.50;98.70
2112;DHT22;1062;52.538;13.400;2023-04-03T13:51:54;5.40;98.50
2112;DHT22;1062;52.538;13.400;2023-04-03T13:56:55;5.50;98.70
2112;DHT22;1062;52.538;13.400;2023-04-03T13:59:29;5.60;99.20
2112;DHT22;1062;52.538;13.400;2023-04-03T14:04:54;5.40;98.90
2112;DHT22;1062;52.538;13.400;2023-04-03T14:07:19;5.30;98.70
2112;DHT22;1062;52.538;13.400;2023-04-03T14:09:47;5.40;99.20
2112;DHT22;1062;52.538;13.400;2023-04-03T14:12:34;5.40;99.30
2112;DHT22;1062;52.538;13.400;2023-04-03T14:15:04;5.40;99.60
2112;DHT22;1062;52.538;13.400;2023-04-03T14:17:30;5.40;99.40
2112;DHT22;1062;52.538;13.400;2023-04-03T14:19:58;5.50;99.40
2112;DHT22;1062;52.538;13.400;2023-04-03T14:22:30;5.50;98.90
2112;DHT22;1062;52.538;13.400;2023-04-03T14:24:57;5.40;99.10
2112;DHT22;1062;52.538;13.400;2023-04-03T14:27:31;5.50;99.30
2112;DHT22;1062;52.538;13.400;2023-04-03T14:29:59;5.40;99.80
2112;DHT22;1062;52.538;13.400;2023-04-03T14:32:26;5.60;99.90
2112;DHT22;1062;52.538;13.400;2023-04-03T14:34:52;5.70;99.80
2112;DHT22;1062;52.538;13.400;2023-04-03T14:37:23;5.80;99.90
2112;DHT22;1062;52.538;13.400;2023-04-03T14:39:51;5.80;99.80
2112;DHT22;1062;52.538;13.400;2023-04-03T14:42:30;5.70;99.90
2112;DHT22;1062;52.538;13.400;2023-04-03T14:44:56;5.60;99.90
2112;DHT22;1062;52.538;13.400;2023-04-03T14:47:25;5.60;99.90
2112;DHT22;1062;52.538;13.400;2023-04-03T14:49:51;5.70;99.90
2112;DHT22;1062;52.538;13.400;2023-04-03T14:52:24;5.50;99.90
2112;DHT22;1062;52.538;13.400;2023-04-03T14:54:51;5.30;99.90
2112;DHT22;1062;52.538;13.400;2023-04-03T14:57:17;5.10;99.90
2112;DHT22;1062;52.538;13.400;2023-04-03T14:59:44;5.00;99.90
2112;DHT22;1062;52.538;13.400;2023-04-03T15:04:57;5.10;99.90
2112;DHT22;1062;52.538;13.400;2023-04-03T15:07:26;5.00;99.90
2112;DHT22;1062;52.538;13.400;2023-04-03T15:09:53;5.00;99.90
2112;DHT22;1062;52.538;13.400;2023-04-03T15:12:22;4.90;99.90
2112;DHT22;1062;52.538;13.400;2023-04-03T15:14:48;4.80;99.90
2112;DHT22;1062;52.538;13.400;2023-04-03T15:17:19;4.80;99.90
2112;DHT22;1062;52.538;13.400;2023-04-03T15:19:46;4.80;99.90
2112;DHT22;1062;52.538;13.400;2023-04-03T15:22:18;4.90;99.90
2112;DHT22;1062;52.538;13.400;2023-04-03T15:24:44;4.70;99.90
2112;DHT22;1062;52.538;13.400;2023-04-03T15:27:11;4.70;99.90
2112;DHT22;1062;52.538;13.400;2023-04-03T15:29:38;4.70;99.90
2112;DHT22;1062;52.538;13.400;2023-04-03T15:32:05;4.60;99.90
2112;DHT22;1062;52.538;13.400;2023-04-03T15:34:31;4.60;99.90
2112;DHT22;1062;52.538;13.400;2023-04-03T15:36:57;4.60;99.90
2112;DHT22;1062;52.538;13.400;2023-04-03T15:39:24;4.50;99.90
2112;DHT22;1062;52.538;13.400;2023-04-03T15:41:50;4.50;99.90
2112;DHT22;1062;52.538;13.400;2023-04-03T15:44:17;4.60;99.90
2112;DHT22;1062;52.538;13.400;2023-04-03T15:46:44;4.60;99.90
2112;DHT22;1062;52.538;13.400;2023-04-03T15:49:11;4.70;99.90
2112;DHT22;1062;52.538;13.400;2023-04-03T15:51:37;4.70;99.90
2112;DHT22;1062;52.538;13.400;2023-04-03T15:54:02;4.70;99.90
2112;DHT22;1062;52.538;13.400;2023-04-03T15:56:28;4.70;99.90
2112;DHT22;1062;52.538;13.400;2023-04-03T15:58:54;4.70;99.90
2112;DHT22;1062;52.538;13.400;2023-04-03T16:01:19;4.60;99.90
2112;DHT22;1062;52.538;13.400;2023-04-03T16:03:46;4.40;99.90
2112;DHT22;1062;52.538;13.400;2023-04-03T16:06:16;4.40;99.90
2112;DHT22;1062;52.538;13.400;2023-04-03T16:08:44;4.30;99.90
2112;DHT22;1062;52.538;13.400;2023-04-03T16:11:10;4.30;99.90
2112;DHT22;1062;52.538;13.400;2023-04-03T16:13:36;4.30;99.90
2112;DHT22;1062;52.538;13.400;2023-04-03T16:16:02;4.40;99.90
2112;DHT22;1062;52.538;13.400;2023-04-03T16:18:29;4.50;99.90
2112;DHT22;1062;52.538;13.400;2023-04-03T16:20:55;4.60;99.90
2112;DHT22;1062;52.538;13.400;2023-04-03T16:23:22;4.60;99.90
2112;DHT22;1062;52.538;13.400;2023-04-03T16:25:48;4.70;99.90
2112;DHT22;1062;52.538;13.400;2023-04-03T16:28:16;4.80;99.90
2112;DHT22;1062;52.538;13.400;2023-04-03T16:30:46;4.80;99.90
2112;DHT22;1062;52.538;13.400;2023-04-03T16:33:12;4.90;99.90
2112;DHT22;1062;52.538;13.400;2023-04-03T16:35:39;4.90;99.90
2112;DHT22;1062;52.538;13.400;2023-04-03T16:38:05;4.90;99.90
2112;DHT22;1062;52.538;13.400;2023-04-03T16:40:31;4.80;99.90
2112;DHT22;1062;52.538;13.400;2023-04-03T16:43:00;4.90;99.90
2112;DHT22;1062;52.538;13.400;2023-04-03T16:45:26;4.90;99.90
2112;DHT22;1062;52.538;13.400;2023-04-03T16:47:52;4.80;99.90
2112;DHT22;1062;52.538;13.400;2023-04-03T16:50:17;4.80;99.90
2112;DHT22;1062;52.538;13.400;2023-04-03T16:52:45;4.70;99.90
2112;DHT22;1062;52.538;13.400;2023-04-03T16:55:11;4.60;99.90
2112;DHT22;1062;52.538;13.400;2023-04-03T16:57:37;4.50;99.90
2112;DHT22;1062;52.538;13.400;2023-04-03T17:00:03;4.50;99.90
2112;DHT22;1062;52.538;13.400;2023-04-03T17:02:29;4.40;99.90
2112;DHT22;1062;52.538;13.400;2023-04-03T17:04:55;4.40;99.90
2112;DHT22;1062;52.538;13.400;2023-04-03T17:07:22;4.40;99.90
2112;DHT22;1062;52.538;13.400;2023-04-03T17:09:48;4.30;99.90
2112;DHT22;1062;52.538;13.400;2023-04-03T17:12:15;4.30;99.90
2112;DHT22;1062;52.538;13.400;2023-04-03T17:14:40;4.30;99.90
2112;DHT22;1062;52.538;13.400;2023-04-03T17:17:06;4.30;99.90
2112;DHT22;1062;52.538;13.400;2023-04-03T17:19:34;4.20;99.90
2112;DHT22;1062;52.538;13.400;2023-04-03T17:22:00;4.30;99.90
2112;DHT22;1062;52.538;13.400;2023-04-03T17:24:26;4.20;99.90
2112;DHT22;1062;52.538;13.400;2023-04-03T17:26:52;4.20;99.90
2112;DHT22;1062;52.538;13.400;2023-04-03T17:29:18;4.20;99.90
2112;DHT22;1062;52.538;13.400;2023-04-03T17:31:44;4.20;99.90
2112;DHT22;1062;52.538;13.400;2023-04-03T17:34:09;4.10;99.90
2112;DHT22;1062;52.538;13.400;2023-04-03T17:36:37;4.10;99.90
2112;DHT22;1062;52.538;13.400;2023-04-03T17:39:04;4.00;99.90
2112;DHT22;1062;52.538;13.400;2023-04-03T17:41:33;4.00;99.90
2112;DHT22;1062;52.538;13.400;2023-04-03T17:43:58;4.00;99.90
2112;DHT22;1062;52.538;13.400;2023-04-03T17:46:24;4.00;99.90
2112;DHT22;1062;52.538;13.400;2023-04-03T17:48:51;4.00;99.90
2112;DHT22;1062;52.538;13.400;2023-04-03T17:51:19;4.00;99.90
2112;DHT22;1062;52.538;13.400;2023-04-03T17:53:46;3.90;99.90
2112;DHT22;1062;52.538;13.400;2023-04-03T17:56:23;3.90;99.90
2112;DHT22;1062;52.538;13.400;2023-04-03T17:58:50;3.90;99.90
2112;DHT22;1062;52.538;13.400;2023-04-03T18:01:22;3.90;99.90
2112;DHT22;1062;52.538;13.400;2023-04-03T18:03:51;3.90;99.90